createdAt,value
2023-05-05T00:00:41.775Z,648.2
2023-05-05T00:02:25.476Z,647.9
2023-05-05T00:05:52.897Z,648.2
2023-05-05T00:07:36.594Z,647.4
2023-05-05T00:09:20.284Z,648.3
2023-05-05T00:11:03.988Z,647.8
2023-05-05T00:12:47.692Z,650.2
2023-05-05T00:14:31.393Z,652.7
2023-05-05T00:16:15.123Z,654.2
2023-05-05T00:17:58.813Z,653.8
2023-05-05T00:19:42.516Z,649.8
2023-05-05T00:21:26.193Z,650
2023-05-05T00:23:09.906Z,652.1
2023-05-05T00:24:53.614Z,653.5
2023-05-05T00:26:37.321Z,655.6
2023-05-05T00:28:21.022Z,658.9
2023-05-05T00:30:04.718Z,658.1
2023-05-05T00:31:48.416Z,660.1
2023-05-05T00:33:32.122Z,662.1
2023-05-05T00:35:15.828Z,662.7
2023-05-05T00:36:59.516Z,660.2
2023-05-05T00:38:43.246Z,662.9
2023-05-05T00:40:26.933Z,711.2
2023-05-05T00:42:10.636Z,715.6
2023-05-05T00:43:54.344Z,704
2023-05-05T00:45:38.035Z,693.5
2023-05-05T00:47:21.748Z,684.9
2023-05-05T00:49:05.446Z,674.9
2023-05-05T00:50:49.153Z,668.8
2023-05-05T00:54:16.545Z,669.6
2023-05-05T00:56:00.249Z,667.5
2023-05-05T00:57:43.959Z,668.6
2023-05-05T00:59:27.668Z,669.7
2023-05-05T01:01:11.357Z,664.8
2023-05-05T01:02:55.091Z,663.8
2023-05-05T01:04:38.774Z,661.7
2023-05-05T01:06:22.465Z,666.2
2023-05-05T01:08:06.190Z,671
2023-05-05T01:09:49.869Z,667.8
2023-05-05T01:11:33.572Z,666.4
2023-05-05T01:13:17.272Z,668.8
2023-05-05T01:15:00.980Z,681.1
2023-05-05T01:16:44.679Z,739.5
2023-05-05T01:18:28.380Z,762.2
2023-05-05T01:20:12.085Z,777
2023-05-05T01:21:55.785Z,764.7
2023-05-05T01:23:39.489Z,722.3
2023-05-05T01:25:23.191Z,707.8
2023-05-05T01:27:06.894Z,702.3
2023-05-05T01:28:50.592Z,695
2023-05-05T01:30:34.304Z,695.9
2023-05-05T01:32:17.996Z,697.4
2023-05-05T01:34:01.704Z,699.3
2023-05-05T01:35:45.417Z,700.8
2023-05-05T01:37:29.111Z,698.4
2023-05-05T01:39:12.818Z,695.3
2023-05-05T01:40:56.514Z,695.3
2023-05-05T01:42:40.223Z,691.7
2023-05-05T01:44:23.916Z,690.8
2023-05-05T01:46:07.619Z,692.2
2023-05-05T01:47:51.318Z,693.2
2023-05-05T01:49:35.033Z,693.3
2023-05-05T01:51:18.726Z,692.2
2023-05-05T01:53:02.425Z,693.9
2023-05-05T01:54:46.122Z,695.1
2023-05-05T01:56:29.834Z,694.4
2023-05-05T01:58:13.540Z,695.6
2023-05-05T01:59:57.259Z,695.8
2023-05-05T02:01:40.945Z,699.9
2023-05-05T02:03:24.649Z,698.2
2023-05-05T02:05:08.346Z,696.5
2023-05-05T02:06:52.077Z,694.9
2023-05-05T02:08:35.752Z,693.1
2023-05-05T02:10:19.449Z,689
2023-05-05T02:13:46.875Z,693.1
2023-05-05T02:15:30.570Z,692.7
2023-05-05T02:17:14.269Z,695.8
2023-05-05T02:18:57.965Z,696
2023-05-05T02:20:41.677Z,697.3
2023-05-05T02:22:25.370Z,698.8
2023-05-05T02:24:09.080Z,699.7
2023-05-05T02:25:52.789Z,700.2
2023-05-05T02:27:36.479Z,697.4
2023-05-05T02:29:20.184Z,696.2
2023-05-05T02:31:03.892Z,695
2023-05-05T02:32:47.591Z,693.9
2023-05-05T02:34:31.311Z,694.9
2023-05-05T02:36:14.995Z,696.6
2023-05-05T02:37:58.702Z,698
2023-05-05T02:39:42.408Z,695.4
2023-05-05T02:41:26.104Z,692.2
2023-05-05T02:43:09.897Z,692.5
2023-05-05T02:44:53.551Z,692.6
2023-05-05T02:46:37.208Z,691.6
2023-05-05T02:48:20.911Z,692.4
2023-05-05T02:50:04.630Z,693.5
2023-05-05T02:53:32.020Z,695.6
2023-05-05T02:55:15.714Z,694.3
2023-05-05T02:56:59.416Z,693.3
2023-05-05T02:58:43.150Z,696.7
2023-05-05T03:00:26.823Z,692.9
2023-05-05T03:02:10.532Z,695.3
2023-05-05T03:03:54.258Z,697.1
2023-05-05T03:05:37.947Z,694.3
2023-05-05T03:09:05.335Z,694.6
2023-05-05T03:10:49.042Z,694.7
2023-05-05T03:12:32.744Z,694.6
2023-05-05T03:14:16.448Z,695
2023-05-05T03:16:00.152Z,693.5
2023-05-05T03:17:43.854Z,692.4
2023-05-05T03:19:27.559Z,692.7
2023-05-05T03:21:11.264Z,695
2023-05-05T03:22:54.963Z,694.6
2023-05-05T03:24:38.664Z,694.2
2023-05-05T03:26:22.371Z,692.2
2023-05-05T03:28:06.058Z,691.4
2023-05-05T03:29:49.769Z,690.9
2023-05-05T03:31:33.473Z,692.1
2023-05-05T03:33:17.184Z,694.5
2023-05-05T03:35:00.881Z,697
2023-05-05T03:36:44.580Z,692.8
2023-05-05T03:38:28.280Z,696
2023-05-05T03:40:12.208Z,694.9
2023-05-05T03:41:55.675Z,706.2
2023-05-05T03:43:39.398Z,708.4
2023-05-05T03:45:23.102Z,706.1
2023-05-05T03:47:06.817Z,702.4
2023-05-05T03:48:50.507Z,703.5
2023-05-05T03:50:34.195Z,707.2
2023-05-05T03:52:17.904Z,709.7
2023-05-05T03:54:01.610Z,710.3
2023-05-05T03:55:45.300Z,710.7
2023-05-05T03:57:29.012Z,710.8
2023-05-05T03:59:12.716Z,708.8
2023-05-05T04:00:56.409Z,710.1
2023-05-05T04:02:40.122Z,708
2023-05-05T04:04:23.817Z,705
2023-05-05T04:06:07.526Z,706
2023-05-05T04:07:51.225Z,706.3
2023-05-05T04:09:34.924Z,705.1
2023-05-05T04:11:18.631Z,711
2023-05-05T04:13:02.331Z,712.5
2023-05-05T04:14:46.033Z,716
2023-05-05T04:16:29.737Z,713.1
2023-05-05T04:18:13.440Z,707.8
2023-05-05T04:19:57.133Z,708
2023-05-05T04:21:40.847Z,707.7
2023-05-05T04:23:24.550Z,710.8
2023-05-05T04:25:08.257Z,710.6
2023-05-05T04:26:51.958Z,710.2
2023-05-05T04:28:35.656Z,723.3
2023-05-05T04:30:19.372Z,786.8
2023-05-05T04:32:03.089Z,803.7
2023-05-05T04:33:46.810Z,806.2
2023-05-05T04:35:30.459Z,811.5
2023-05-05T04:37:14.170Z,814.4
2023-05-05T04:38:57.922Z,812.5
2023-05-05T04:40:41.581Z,813.8
2023-05-05T04:42:25.279Z,813.7
2023-05-05T04:44:08.972Z,814.7
2023-05-05T04:45:52.677Z,815.4
2023-05-05T04:47:36.410Z,816.9
2023-05-05T04:49:20.073Z,819.1
2023-05-05T04:51:03.784Z,816.7
2023-05-05T04:52:47.480Z,815.5
2023-05-05T04:54:31.186Z,813.8
2023-05-05T04:56:14.887Z,816
2023-05-05T04:57:58.595Z,840.4
2023-05-05T04:59:42.316Z,857.3
2023-05-05T05:01:25.990Z,861.3
2023-05-05T05:03:09.690Z,864
2023-05-05T05:04:53.393Z,860.5
2023-05-05T05:06:37.109Z,854
2023-05-05T05:08:20.813Z,850.8
2023-05-05T05:10:04.499Z,846.6
2023-05-05T05:11:48.208Z,841.4
2023-05-05T05:13:31.912Z,837.9
2023-05-05T05:15:15.607Z,834.4
2023-05-05T05:16:59.311Z,830.4
2023-05-05T05:18:43.019Z,832.4
2023-05-05T05:20:26.708Z,834.9
2023-05-05T05:22:10.418Z,832.4
2023-05-05T05:23:54.112Z,827.3
2023-05-05T05:25:37.824Z,825.4
2023-05-05T05:27:21.532Z,825.3
2023-05-05T05:29:05.243Z,826.3
2023-05-05T05:30:48.931Z,835.2
2023-05-05T05:32:32.635Z,921.8
2023-05-05T05:34:16.381Z,936.3
2023-05-05T05:36:00.035Z,928.3
2023-05-05T05:37:43.757Z,912
2023-05-05T05:39:27.453Z,872.6
2023-05-05T05:41:11.149Z,863.9
2023-05-05T05:42:54.844Z,858.8
2023-05-05T05:44:38.551Z,857.4
2023-05-05T05:46:22.258Z,858.5
2023-05-05T05:48:05.948Z,856.4
2023-05-05T05:49:49.655Z,852
2023-05-05T05:51:33.358Z,846.3
2023-05-05T05:53:17.067Z,844.6
2023-05-05T05:55:00.772Z,847.9
2023-05-05T05:56:44.480Z,854.8
2023-05-05T05:58:28.180Z,858.5
2023-05-05T06:00:11.882Z,858.4
2023-05-05T06:01:55.572Z,858.8
2023-05-05T06:03:39.341Z,858.8
2023-05-05T06:05:22.987Z,860.6
2023-05-05T06:07:06.679Z,866.7
2023-05-05T06:08:50.400Z,866.4
2023-05-05T06:10:34.091Z,866.1
2023-05-05T06:12:17.927Z,866.6
2023-05-05T06:14:01.499Z,870.3
2023-05-05T06:15:45.206Z,875.9
2023-05-05T06:17:28.907Z,878.7
2023-05-05T06:19:12.665Z,879
2023-05-05T06:20:56.306Z,880.7
2023-05-05T06:22:40.011Z,881.1
2023-05-05T06:24:23.704Z,881
2023-05-05T06:26:07.412Z,875.2
2023-05-05T06:27:51.121Z,874.2
2023-05-05T06:29:34.811Z,876.3
2023-05-05T06:31:18.511Z,875.1
2023-05-05T06:33:02.309Z,876.2
2023-05-05T06:34:45.924Z,874.3
2023-05-05T06:36:29.790Z,877.7
2023-05-05T06:38:13.324Z,881
2023-05-05T06:39:57.079Z,883.5
2023-05-05T06:41:40.729Z,878.5
2023-05-05T06:43:24.451Z,877.6
2023-05-05T06:45:08.148Z,1096.3
2023-05-05T06:46:51.852Z,1237
2023-05-05T06:48:35.559Z,1244.7
2023-05-05T06:50:19.273Z,1329.9
2023-05-05T06:52:02.951Z,1321.3
2023-05-05T06:55:30.481Z,1279.7
2023-05-05T06:57:14.058Z,1246.5
2023-05-05T07:00:41.461Z,1202.8
2023-05-05T07:02:25.162Z,1145.8
2023-05-05T07:04:08.876Z,1151.9
2023-05-05T07:05:52.564Z,1151.5
2023-05-05T07:07:36.280Z,1150.4
2023-05-05T07:09:20.013Z,1153.3
2023-05-05T07:11:03.688Z,1155.1
2023-05-05T07:12:47.397Z,1156.6
2023-05-05T07:14:31.090Z,1164.1
2023-05-05T07:16:14.934Z,1169
2023-05-05T07:17:58.703Z,1170.6
2023-05-05T07:19:42.341Z,1172.7
2023-05-05T07:21:26.066Z,1174.8
2023-05-05T07:24:53.553Z,1160.6
2023-05-05T07:26:37.183Z,1159.7
2023-05-05T07:28:20.875Z,1162.9
2023-05-05T07:30:04.483Z,1166
2023-05-05T07:31:48.214Z,1165.1
2023-05-05T07:33:32.027Z,1161.8
2023-05-05T07:35:15.564Z,1087.8
2023-05-05T07:36:59.225Z,1057.1
2023-05-05T07:38:42.976Z,1055.3
2023-05-05T07:40:26.629Z,1056.6
2023-05-05T07:42:10.392Z,1053.9
2023-05-05T07:43:54.043Z,1059.1
2023-05-05T07:45:37.821Z,1068.4
2023-05-05T07:47:21.457Z,1147.6
2023-05-05T07:49:05.137Z,1148.1
2023-05-05T07:50:48.992Z,1145.5
2023-05-05T07:52:32.590Z,1135.6
2023-05-05T07:54:16.349Z,1119.6
2023-05-05T07:55:59.963Z,1116.4
2023-05-05T07:57:43.642Z,1116.3
2023-05-05T07:59:27.354Z,1105.6
2023-05-05T08:01:11.054Z,1092.3
2023-05-05T08:02:54.752Z,1087.5
2023-05-05T08:04:38.455Z,1086.3
2023-05-05T08:06:22.156Z,1084.5
2023-05-05T08:08:05.874Z,1078.6
2023-05-05T08:09:49.568Z,1078.2
2023-05-05T08:11:33.275Z,1080.3
2023-05-05T08:13:16.978Z,1083.8
2023-05-05T08:15:00.673Z,1084.4
2023-05-05T08:16:44.372Z,1085.1
2023-05-05T08:18:28.082Z,1084.2
2023-05-05T08:20:11.782Z,1084.2
2023-05-05T08:21:55.487Z,1086
2023-05-05T08:23:39.198Z,1085.5
2023-05-05T08:25:22.900Z,1081.7
2023-05-05T08:27:06.593Z,1084.1
2023-05-05T08:28:50.299Z,1082.4
2023-05-05T08:30:33.987Z,1079.4
2023-05-05T08:32:17.699Z,1079.3
2023-05-05T08:34:01.400Z,1075.3
2023-05-05T08:35:45.109Z,1208.5
2023-05-05T08:37:28.838Z,1240.6
2023-05-05T08:39:12.505Z,1240.9
2023-05-05T08:40:56.217Z,1240.7
2023-05-05T08:42:39.920Z,1227.1
2023-05-05T08:44:23.620Z,1187.7
2023-05-05T08:46:07.382Z,1157.3
2023-05-05T08:47:51.059Z,1158
2023-05-05T08:49:34.746Z,1156.4
2023-05-05T08:51:18.520Z,1148.9
2023-05-05T08:53:02.152Z,1140.7
2023-05-05T08:54:45.833Z,1134.2
2023-05-05T08:56:29.537Z,1128.9
2023-05-05T08:58:13.236Z,1120.3
2023-05-05T08:59:56.960Z,1113.4
2023-05-05T09:01:40.690Z,1110.8
2023-05-05T09:03:24.343Z,1115.3
2023-05-05T09:05:08.054Z,1118.3
2023-05-05T09:06:51.753Z,1116.7
2023-05-05T09:08:35.459Z,1115.6
2023-05-05T09:10:19.215Z,1116.8
2023-05-05T09:12:02.851Z,1114.8
2023-05-05T09:13:46.558Z,1111.8
2023-05-05T09:15:30.274Z,1109.8
2023-05-05T09:17:13.968Z,1110
2023-05-05T09:18:57.660Z,1110
2023-05-05T09:20:41.438Z,1108.9
2023-05-05T09:22:25.081Z,1108.8
2023-05-05T09:24:08.780Z,1109
2023-05-05T09:25:52.483Z,1106.4
2023-05-05T09:27:36.182Z,1105.8
2023-05-05T09:29:19.906Z,1103.3
2023-05-05T09:31:03.597Z,1101.4
2023-05-05T09:32:47.301Z,1101
2023-05-05T09:34:30.997Z,1104.2
2023-05-05T09:36:14.706Z,1108.3
2023-05-05T09:37:58.427Z,1108.6
2023-05-05T09:39:42.127Z,1107.1
2023-05-05T09:41:25.849Z,1103.8
2023-05-05T09:43:09.514Z,1100.4
2023-05-05T09:44:53.202Z,1096.4
2023-05-05T09:46:36.916Z,1095
2023-05-05T09:48:20.607Z,1097.2
2023-05-05T09:50:04.373Z,1102.3
2023-05-05T09:51:48.026Z,1100.9
2023-05-05T09:53:31.807Z,1101.1
2023-05-05T09:55:15.474Z,1096.9
2023-05-05T09:56:59.134Z,1096.7
2023-05-05T09:58:42.836Z,1095.6
2023-05-05T10:00:26.695Z,1092.6
2023-05-05T10:02:10.382Z,1089.5
2023-05-05T10:03:53.996Z,1089.8
2023-05-05T10:05:37.800Z,1090
2023-05-05T10:07:21.433Z,1089.4
2023-05-05T10:09:05.187Z,1087
2023-05-05T10:10:48.882Z,1093.1
2023-05-05T10:12:32.442Z,1095.6
2023-05-05T10:14:16.237Z,1097.4
2023-05-05T10:16:00.027Z,1100.2
2023-05-05T10:17:43.715Z,1096.9
2023-05-05T10:19:27.460Z,1098.5
2023-05-05T10:21:11.105Z,1097.3
2023-05-05T10:22:54.696Z,1096.8
2023-05-05T10:24:38.368Z,1095.8
2023-05-05T10:26:22.119Z,1096.2
2023-05-05T10:28:05.774Z,1135.7
2023-05-05T10:29:49.473Z,1317.2
2023-05-05T10:31:33.173Z,1352.2
2023-05-05T10:33:16.875Z,1351.2
2023-05-05T10:35:00.577Z,1337.6
2023-05-05T10:36:44.311Z,1308.7
2023-05-05T10:38:28.163Z,1307
2023-05-05T10:40:11.805Z,1297.1
2023-05-05T10:41:55.385Z,1287.4
2023-05-05T10:43:39.137Z,1276.9
2023-05-05T10:47:06.504Z,1260.7
2023-05-05T10:48:50.243Z,1251
2023-05-05T10:50:33.903Z,1243.9
2023-05-05T10:52:17.616Z,1239.3
2023-05-05T10:54:01.304Z,1232
2023-05-05T10:55:45.015Z,1225
2023-05-05T10:57:28.708Z,1222.5
2023-05-05T10:59:12.414Z,1223.8
2023-05-05T11:00:56.124Z,1219.4
2023-05-05T11:02:39.822Z,1219.1
2023-05-05T11:04:23.516Z,1215.8
2023-05-05T11:06:07.225Z,1210.1
2023-05-05T11:07:50.972Z,1209.2
2023-05-05T11:09:34.750Z,1209
2023-05-05T11:11:18.398Z,1212.1
2023-05-05T11:13:02.218Z,1212.6
2023-05-05T11:14:45.772Z,1205.1
2023-05-05T11:16:29.425Z,1196.6
2023-05-05T11:18:13.136Z,1196.8
2023-05-05T11:19:56.877Z,1201.4
2023-05-05T11:21:40.545Z,1202.9
2023-05-05T11:23:24.263Z,1209.8
2023-05-05T11:25:07.946Z,1215.6
2023-05-05T11:26:51.654Z,1218
2023-05-05T11:28:35.361Z,1217.9
2023-05-05T11:30:19.055Z,1215.7
2023-05-05T11:32:02.865Z,1214.3
2023-05-05T11:33:46.550Z,1216.7
2023-05-05T11:35:30.158Z,1216.5
2023-05-05T11:37:13.873Z,1212.4
2023-05-05T11:38:57.562Z,1213.7
2023-05-05T11:40:41.267Z,1218.1
2023-05-05T11:42:24.974Z,1218.6
2023-05-05T11:44:08.674Z,1221.1
2023-05-05T11:45:52.384Z,1222.6
2023-05-05T11:47:36.087Z,1219.5
2023-05-05T11:49:19.781Z,1211.4
2023-05-05T11:51:03.492Z,1215
2023-05-05T11:52:47.184Z,1221.7
2023-05-05T11:54:30.889Z,1223.5
2023-05-05T11:56:14.590Z,1224.4
2023-05-05T11:57:58.407Z,1224.8
2023-05-05T11:59:42.029Z,1227.2
2023-05-05T12:01:25.695Z,1227.8
2023-05-05T12:03:09.402Z,1227.4
2023-05-05T12:04:53.098Z,1227.8
2023-05-05T12:06:36.802Z,1226.1
2023-05-05T12:08:20.524Z,1226.2
2023-05-05T12:10:04.208Z,1230.5
2023-05-05T12:11:47.918Z,1230.4
2023-05-05T12:13:31.627Z,1232.1
2023-05-05T12:15:15.363Z,1234
2023-05-05T12:16:59.025Z,1235
2023-05-05T12:18:42.750Z,1232.4
2023-05-05T12:20:26.424Z,1231.7
2023-05-05T12:22:10.121Z,1231.5
2023-05-05T12:23:53.838Z,1230.2
2023-05-05T12:25:37.530Z,1229.7
2023-05-05T12:27:21.249Z,1229.5
2023-05-05T12:29:04.989Z,1227.3
2023-05-05T12:30:48.685Z,1226.7
2023-05-05T12:32:32.388Z,1224.9
2023-05-05T12:34:16.047Z,1223.5
2023-05-05T12:35:59.763Z,1217.8
2023-05-05T12:37:43.454Z,1213.2
2023-05-05T12:39:27.151Z,1212
2023-05-05T12:41:10.919Z,1216.6
2023-05-05T12:42:54.555Z,1213.3
2023-05-05T12:44:38.321Z,1208.4
2023-05-05T12:46:21.999Z,1207.2
2023-05-05T12:48:05.666Z,1207.2
2023-05-05T12:49:49.416Z,1207.2
2023-05-05T12:53:16.774Z,1207.3
2023-05-05T12:55:00.478Z,1203.1
2023-05-05T12:56:44.199Z,1201.5
2023-05-05T12:58:27.962Z,1203.3
2023-05-05T13:00:11.588Z,1206.8
2023-05-05T13:01:55.300Z,1204.6
2023-05-05T13:03:39.000Z,1204.8
2023-05-05T13:05:22.702Z,1202.4
2023-05-05T13:07:06.399Z,1197.7
2023-05-05T13:08:50.126Z,1193.9
2023-05-05T13:10:33.812Z,1193.6
2023-05-05T13:12:17.522Z,1191.4
2023-05-05T13:14:01.207Z,1182.4
2023-05-05T13:15:44.923Z,1178.4
2023-05-05T13:17:28.712Z,1174
2023-05-05T13:19:12.394Z,1173.6
2023-05-05T13:20:56.023Z,1169.6
2023-05-05T13:22:39.725Z,1156
2023-05-05T13:24:23.421Z,1141.6
2023-05-05T13:26:07.131Z,1116.6
2023-05-05T13:27:50.882Z,1104
2023-05-05T13:29:34.531Z,1100.9
2023-05-05T13:31:18.244Z,1103.3
2023-05-05T13:33:01.947Z,1108.6
2023-05-05T13:34:45.639Z,1113.8
2023-05-05T13:36:29.348Z,1116
2023-05-05T13:38:13.052Z,1113
2023-05-05T13:39:56.763Z,1102.3
2023-05-05T13:41:40.459Z,1094.5
2023-05-05T13:43:24.153Z,1064.9
2023-05-05T13:45:07.855Z,1032.9
2023-05-05T13:46:51.569Z,989
2023-05-05T13:48:35.262Z,952
2023-05-05T13:50:18.962Z,902.6
2023-05-05T13:52:02.667Z,884.3
2023-05-05T13:53:46.373Z,877.7
2023-05-05T13:55:30.073Z,875.4
2023-05-05T13:57:13.771Z,880.8
2023-05-05T13:58:57.498Z,884.2
2023-05-05T14:00:41.237Z,880.7
2023-05-05T14:02:24.899Z,868
2023-05-05T14:04:08.593Z,851.3
2023-05-05T14:05:52.281Z,832.4
2023-05-05T14:07:35.994Z,801
2023-05-05T14:09:19.699Z,799.4
2023-05-05T14:11:03.394Z,800
2023-05-05T14:12:47.105Z,801.5
2023-05-05T14:14:30.801Z,799.5
2023-05-05T14:16:14.500Z,797.2
2023-05-05T14:19:41.913Z,791.5
2023-05-05T14:21:25.609Z,789.7
2023-05-05T14:23:09.312Z,790
2023-05-05T14:24:52.998Z,790.6
2023-05-05T14:26:36.791Z,792.1
2023-05-05T14:28:20.421Z,791.4
2023-05-05T14:30:04.115Z,791.5
2023-05-05T14:31:47.829Z,789.7
2023-05-05T14:33:31.519Z,797.1
2023-05-05T14:35:15.225Z,789.8
2023-05-05T14:36:58.953Z,785.8
2023-05-05T14:38:42.635Z,779.2
2023-05-05T14:40:26.328Z,779.4
2023-05-05T14:42:10.040Z,780.4
2023-05-05T14:43:53.734Z,781.9
2023-05-05T14:45:37.442Z,784.2
2023-05-05T14:47:21.138Z,783.3
2023-05-05T14:49:04.844Z,782.4
2023-05-05T14:50:48.613Z,781.3
2023-05-05T14:52:32.269Z,783.7
2023-05-05T14:54:15.943Z,789
2023-05-05T14:55:59.649Z,790.3
2023-05-05T14:57:43.371Z,790.8
2023-05-05T14:59:27.060Z,794
2023-05-05T15:01:10.751Z,791.1
2023-05-05T15:02:54.491Z,791.9
2023-05-05T15:04:38.159Z,793.9
2023-05-05T15:06:21.881Z,798
2023-05-05T15:08:05.569Z,797
2023-05-05T15:09:49.303Z,797
2023-05-05T15:11:32.973Z,796
2023-05-05T15:13:16.697Z,798.9
2023-05-05T15:15:00.421Z,798.4
2023-05-05T15:16:44.090Z,797.5
2023-05-05T15:18:27.788Z,797.5
2023-05-05T15:20:11.486Z,800.7
2023-05-05T15:21:55.180Z,804.5
2023-05-05T15:23:38.896Z,802.9
2023-05-05T15:25:22.580Z,802.3
2023-05-05T15:27:06.296Z,802
2023-05-05T15:28:49.992Z,805.9
2023-05-05T15:30:33.734Z,806.1
2023-05-05T15:32:17.408Z,839.9
2023-05-05T15:34:01.088Z,943.9
2023-05-05T15:35:44.809Z,974
2023-05-05T15:37:28.558Z,971.7
2023-05-05T15:39:12.200Z,950.5
2023-05-05T15:40:55.909Z,943.9
2023-05-05T15:42:39.776Z,938
2023-05-05T15:44:23.326Z,940.3
2023-05-05T15:46:07.104Z,951
2023-05-05T15:47:50.707Z,951.8
2023-05-05T15:49:34.419Z,954.6
2023-05-05T15:51:18.157Z,950.3
2023-05-05T15:53:01.819Z,937.6
2023-05-05T15:54:45.531Z,911.7
2023-05-05T15:56:29.217Z,905.9
2023-05-05T15:58:12.929Z,781.8
2023-05-05T15:59:56.648Z,727.5
2023-05-05T16:01:40.328Z,771
2023-05-05T16:03:24.019Z,780.4
2023-05-05T16:05:07.743Z,786.7
2023-05-05T16:06:51.441Z,791.8
2023-05-05T16:08:35.146Z,794
2023-05-05T16:10:18.851Z,792.8
2023-05-05T16:12:02.545Z,790.9
2023-05-05T16:13:46.254Z,786.2
2023-05-05T16:15:29.966Z,784.9
2023-05-05T16:17:13.650Z,785.9
2023-05-05T16:18:57.402Z,786.2
2023-05-05T16:20:41.057Z,791
2023-05-05T16:22:24.772Z,802.4
2023-05-05T16:24:08.472Z,814.1
2023-05-05T16:25:52.163Z,847.2
2023-05-05T16:27:35.867Z,859.2
2023-05-05T16:29:19.564Z,855.6
2023-05-05T16:31:03.276Z,848.2
2023-05-05T16:32:46.977Z,845.6
2023-05-05T16:34:30.683Z,837.9
2023-05-05T16:36:14.444Z,834.1
2023-05-05T16:37:58.104Z,838.8
2023-05-05T16:39:41.780Z,838.4
2023-05-05T16:41:25.488Z,839.4
2023-05-05T16:43:09.206Z,938.2
2023-05-05T16:44:52.895Z,968.7
2023-05-05T16:46:36.616Z,922
2023-05-05T16:48:20.301Z,879.6
2023-05-05T16:50:04.000Z,870
2023-05-05T16:51:47.711Z,870.8
2023-05-05T16:53:31.440Z,869.5
2023-05-05T16:55:15.112Z,877.6
2023-05-05T16:56:58.841Z,883.1
2023-05-05T16:58:42.525Z,880
2023-05-05T17:00:26.224Z,878.2
2023-05-05T17:02:09.918Z,875.6
2023-05-05T17:05:37.326Z,870.4
2023-05-05T17:07:21.025Z,784
2023-05-05T17:09:04.739Z,696.3
2023-05-05T17:10:48.463Z,622.6
2023-05-05T17:14:15.840Z,561.8
2023-05-05T17:15:59.537Z,549.2
2023-05-05T17:17:43.261Z,540.3
2023-05-05T17:19:26.942Z,539.5
2023-05-05T17:21:10.654Z,531.3
2023-05-05T17:22:54.348Z,506.1
2023-05-05T17:24:38.052Z,497.2
2023-05-05T17:26:21.751Z,491.5
2023-05-05T17:28:05.463Z,483.8
2023-05-05T17:29:49.161Z,474.6
2023-05-05T17:31:33.024Z,461.5
2023-05-05T17:33:16.567Z,452.1
2023-05-05T17:35:00.294Z,443.8
2023-05-05T17:36:43.968Z,438.9
2023-05-05T17:38:27.668Z,438.4
2023-05-05T17:40:11.369Z,436.9
2023-05-05T17:41:55.077Z,438.9
2023-05-05T17:45:22.558Z,436.3
2023-05-05T17:47:06.263Z,430.9
2023-05-05T17:50:33.597Z,427
2023-05-05T17:52:17.291Z,426.7
2023-05-05T17:55:44.696Z,433.3
2023-05-05T17:57:28.419Z,432.3
2023-05-05T17:59:12.126Z,435.1
2023-05-05T18:00:55.823Z,440.1
2023-05-05T18:02:46.579Z,454.1
2023-05-05T18:04:23.221Z,468.9
2023-05-05T18:06:06.998Z,474.9
2023-05-05T18:07:50.610Z,484.3
2023-05-05T18:09:34.313Z,489.8
2023-05-05T18:11:18.077Z,491.9
2023-05-05T18:16:29.138Z,494.9
2023-05-05T18:18:12.831Z,490.2
2023-05-05T18:19:56.553Z,487.5
2023-05-05T18:21:40.227Z,489.7
2023-05-05T18:25:07.658Z,493.9
2023-05-05T18:30:18.752Z,526.4
2023-05-05T18:32:02.500Z,526.9
2023-05-05T18:33:46.154Z,528.9
2023-05-05T18:35:29.848Z,531.6
2023-05-05T18:38:57.263Z,537.9
2023-05-05T18:40:40.958Z,541.6
2023-05-05T18:42:24.662Z,545.1
2023-05-05T18:44:08.418Z,556.7
2023-05-05T18:45:52.070Z,588.6
2023-05-05T18:47:35.773Z,602.7
2023-05-05T18:49:19.468Z,600.2
2023-05-05T18:51:03.183Z,609.7
2023-05-05T18:54:30.575Z,622.7
2023-05-05T18:56:14.287Z,629
2023-05-05T18:57:57.988Z,631.5
2023-05-05T18:59:48.695Z,637.4
2023-05-05T19:01:32.390Z,640.2
2023-05-05T19:03:09.103Z,646.8
2023-05-05T19:04:52.948Z,646.3
2023-05-05T19:08:20.380Z,651.3
2023-05-05T19:10:04.192Z,644.9
2023-05-05T19:11:54.808Z,639
2023-05-05T19:13:38.296Z,632.6
2023-05-05T19:15:15.170Z,630.4
2023-05-05T19:16:58.707Z,628.6
2023-05-05T19:18:49.591Z,627.4
2023-05-05T19:20:26.286Z,624.7
2023-05-05T19:22:09.867Z,621
2023-05-05T19:23:53.665Z,615.7
2023-05-05T19:25:37.264Z,613.4
2023-05-05T19:29:04.748Z,607.8
2023-05-05T19:30:48.332Z,602.8
2023-05-05T19:32:32.263Z,599.6
2023-05-05T19:35:59.524Z,600.3
2023-05-05T19:37:43.145Z,595.9
2023-05-05T19:39:33.853Z,590.8
2023-05-05T19:42:54.370Z,579.4
2023-05-05T19:44:38.008Z,577.5
2023-05-05T19:46:21.810Z,576.7
2023-05-05T19:48:12.544Z,572.4
2023-05-05T19:49:49.210Z,567.5
2023-05-05T19:51:32.790Z,567.1
2023-05-05T19:53:16.610Z,567.8
2023-05-05T19:55:00.384Z,569.3
2023-05-05T19:56:51.051Z,567.5
2023-05-05T19:58:27.741Z,576.1
2023-05-05T20:00:11.353Z,591.1
2023-05-05T20:01:55.119Z,599.1
2023-05-05T20:03:38.781Z,601.7
2023-05-05T20:05:22.452Z,615.2
2023-05-05T20:07:13.267Z,624.6
2023-05-05T20:08:49.900Z,625.9
2023-05-05T20:10:33.615Z,623.8
2023-05-05T20:12:17.340Z,619.8
2023-05-05T20:14:08.051Z,619.4
2023-05-05T20:15:44.761Z,619.9
2023-05-05T20:17:28.475Z,624.2
2023-05-05T20:19:12.221Z,627.2
2023-05-05T20:20:55.829Z,630.5
2023-05-05T20:33:01.823Z,699.5
2023-05-05T20:34:45.464Z,707.4
2023-05-05T20:38:12.729Z,735.2
2023-05-05T20:43:23.879Z,764.9
2023-05-05T20:46:51.326Z,783.7
2023-05-05T20:48:35.127Z,799.1
2023-05-05T20:52:02.607Z,851.7
2023-05-05T20:53:46.071Z,856.7
2023-05-05T20:57:13.655Z,847.8
2023-05-05T20:58:57.303Z,860.2
2023-05-05T21:00:41.048Z,882.2
2023-05-05T21:02:24.731Z,873.4
2023-05-05T21:04:08.438Z,860.6
2023-05-05T21:05:59.168Z,865.4
2023-05-05T21:07:35.686Z,864.7
2023-05-05T21:09:33.549Z,868.9
2023-05-05T21:11:10.237Z,889.9
2023-05-05T21:12:46.958Z,907.4
2023-05-05T21:14:30.502Z,909.5
2023-05-05T21:16:14.268Z,900.8
2023-05-05T21:17:58.077Z,891.8
2023-05-05T21:19:41.773Z,884
2023-05-05T21:21:25.478Z,879.4
2023-05-05T21:23:09.162Z,875
2023-05-05T21:24:52.815Z,867.8
2023-05-05T21:26:36.490Z,859.6
2023-05-05T21:28:20.247Z,856.4
2023-05-05T21:30:03.812Z,853.2
2023-05-05T21:31:47.639Z,850.2
2023-05-05T21:33:31.350Z,853.4
2023-05-05T21:35:15.104Z,854.7
2023-05-05T21:36:58.795Z,849.1
2023-05-05T21:38:42.437Z,844.1
2023-05-05T21:40:26.097Z,844.9
2023-05-05T21:42:09.724Z,845.1
2023-05-05T21:43:53.548Z,845.3
2023-05-05T21:45:37.128Z,846.5
2023-05-05T21:47:21.001Z,848.2
2023-05-05T21:49:04.606Z,850
2023-05-05T21:50:48.288Z,847.4
2023-05-05T21:52:32.119Z,848.7
2023-05-05T21:54:15.799Z,849.1
2023-05-05T21:55:59.418Z,851.6
2023-05-05T21:57:43.285Z,848.8
2023-05-05T22:01:10.484Z,846.2
2023-05-05T22:02:54.306Z,843
2023-05-05T22:04:38.036Z,843.6
2023-05-05T22:06:21.765Z,850.4
2023-05-05T22:08:05.353Z,856.9
2023-05-05T22:09:48.972Z,853
2023-05-05T22:11:32.678Z,850.7
2023-05-05T22:13:16.370Z,848.4
2023-05-05T22:15:00.074Z,848.4
2023-05-05T22:16:43.791Z,848.8
2023-05-05T22:18:27.536Z,848.5
2023-05-05T22:20:11.192Z,843.1
2023-05-05T22:21:54.882Z,843.6
2023-05-05T22:23:38.587Z,846.3
2023-05-05T22:25:22.389Z,846.2
2023-05-05T22:27:06.017Z,843.6
2023-05-05T22:28:49.687Z,842.2
2023-05-05T22:32:17.274Z,849.3
2023-05-05T22:34:01.007Z,848.5
2023-05-05T22:35:44.618Z,849.6
2023-05-05T22:37:28.381Z,849.9
2023-05-05T22:39:12.099Z,846.4
2023-05-05T22:40:55.659Z,850.2
2023-05-05T22:42:39.311Z,850.4
2023-05-05T22:44:23.012Z,847.2
2023-05-05T22:46:06.726Z,847.4
2023-05-05T22:47:50.541Z,844
2023-05-05T22:49:34.205Z,842.3
2023-05-05T22:51:17.959Z,838.8
2023-05-05T22:54:45.306Z,834.9
2023-05-05T22:56:29.019Z,833.9
2023-05-05T22:58:12.758Z,832.3
2023-05-05T22:59:56.473Z,833.2
2023-05-05T23:01:40.122Z,832.5
2023-05-05T23:03:23.773Z,832.8
2023-05-05T23:05:07.490Z,833.5
2023-05-05T23:06:51.297Z,833.9
2023-05-05T23:08:34.993Z,832.5
2023-05-05T23:10:18.550Z,837.2
2023-05-05T23:12:02.398Z,833.9
2023-05-05T23:13:46.141Z,831.2
2023-05-05T23:17:13.380Z,832.8
2023-05-05T23:18:57.064Z,828.6
2023-05-05T23:20:40.938Z,826.1
2023-05-05T23:22:24.600Z,826.8
2023-05-05T23:24:08.356Z,829.2
2023-05-05T23:25:51.987Z,829